sensor_id;sensor_type;location;lat;lon;timestamp;P1;durP1;ratioP1;P2;durP2;ratioP2
33104;SDS011;19476;51.448;6.674;2023-04-19T00:01:52;8.73;;;5.00;;
33104;SDS011;19476;51.448;6.674;2023-04-19T00:04:18;7.85;;;4.93;;
33104;SDS011;19476;51.448;6.674;2023-04-19T00:06:44;9.85;;;5.53;;
33104;SDS011;19476;51.448;6.674;2023-04-19T00:09:11;8.65;;;5.68;;
33104;SDS011;19476;51.448;6.674;2023-04-19T00:11:37;8.20;;;4.97;;
33104;SDS011;19476;51.448;6.674;2023-04-19T00:14:03;6.97;;;4.65;;
33104;SDS011;19476;51.448;6.674;2023-04-19T00:16:29;9.23;;;5.88;;
33104;SDS011;19476;51.448;6.674;2023-04-19T00:18:55;9.73;;;5.95;;
33104;SDS011;19476;51.448;6.674;2023-04-19T00:21:20;9.77;;;5.85;;
33104;SDS011;19476;51.448;6.674;2023-04-19T00:23:46;8.75;;;5.55;;
33104;SDS011;19476;51.448;6.674;2023-04-19T00:26:12;8.00;;;5.38;;
33104;SDS011;19476;51.448;6.674;2023-04-19T00:28:39;8.60;;;6.10;;
33104;SDS011;19476;51.448;6.674;2023-04-19T00:31:06;8.32;;;5.57;;
33104;SDS011;19476;51.448;6.674;2023-04-19T00:33:32;10.18;;;6.38;;
33104;SDS011;19476;51.448;6.674;2023-04-19T00:35:58;8.48;;;5.97;;
33104;SDS011;19476;51.448;6.674;2023-04-19T00:38:23;8.27;;;5.47;;
33104;SDS011;19476;51.448;6.674;2023-04-19T00:40:49;9.65;;;6.13;;
33104;SDS011;19476;51.448;6.674;2023-04-19T00:43:18;8.77;;;5.50;;
33104;SDS011;19476;51.448;6.674;2023-04-19T00:45:44;7.72;;;5.53;;
33104;SDS011;19476;51.448;6.674;2023-04-19T00:48:14;10.00;;;6.13;;
33104;SDS011;19476;51.448;6.674;2023-04-19T00:50:41;8.95;;;6.10;;
33104;SDS011;19476;51.448;6.674;2023-04-19T00:53:08;10.15;;;5.55;;
33104;SDS011;19476;51.448;6.674;2023-04-19T00:55:35;9.85;;;6.45;;
33104;SDS011;19476;51.448;6.674;2023-04-19T00:58:02;8.70;;;5.63;;
33104;SDS011;19476;51.448;6.674;2023-04-19T01:00:30;10.02;;;6.70;;
33104;SDS011;19476;51.448;6.674;2023-04-19T01:02:57;10.68;;;6.88;;
33104;SDS011;19476;51.448;6.674;2023-04-19T01:05:22;11.27;;;7.07;;
33104;SDS011;19476;51.448;6.674;2023-04-19T01:07:48;11.43;;;7.57;;
33104;SDS011;19476;51.448;6.674;2023-04-19T01:10:18;12.52;;;6.97;;
33104;SDS011;19476;51.448;6.674;2023-04-19T01:12:44;12.80;;;7.68;;
33104;SDS011;19476;51.448;6.674;2023-04-19T01:15:10;10.40;;;6.97;;
33104;SDS011;19476;51.448;6.674;2023-04-19T01:17:35;11.90;;;6.70;;
33104;SDS011;19476;51.448;6.674;2023-04-19T01:20:02;10.65;;;6.40;;
33104;SDS011;19476;51.448;6.674;2023-04-19T01:22:33;10.40;;;5.68;;
33104;SDS011;19476;51.448;6.674;2023-04-19T01:25:02;8.67;;;5.23;;
33104;SDS011;19476;51.448;6.674;2023-04-19T01:27:29;9.00;;;6.05;;
33104;SDS011;19476;51.448;6.674;2023-04-19T01:29:55;9.05;;;5.57;;
33104;SDS011;19476;51.448;6.674;2023-04-19T01:32:21;8.30;;;5.57;;
33104;SDS011;19476;51.448;6.674;2023-04-19T01:34:47;9.00;;;5.90;;
33104;SDS011;19476;51.448;6.674;2023-04-19T01:37:13;8.68;;;5.72;;
33104;SDS011;19476;51.448;6.674;2023-04-19T01:39:39;9.02;;;5.70;;
33104;SDS011;19476;51.448;6.674;2023-04-19T01:42:04;10.05;;;6.72;;
33104;SDS011;19476;51.448;6.674;2023-04-19T01:44:30;8.10;;;5.50;;
33104;SDS011;19476;51.448;6.674;2023-04-19T01:46:56;8.38;;;5.30;;
33104;SDS011;19476;51.448;6.674;2023-04-19T01:49:22;9.25;;;5.85;;
33104;SDS011;19476;51.448;6.674;2023-04-19T01:51:48;9.80;;;5.88;;
33104;SDS011;19476;51.448;6.674;2023-04-19T01:54:14;11.82;;;6.15;;
33104;SDS011;19476;51.448;6.674;2023-04-19T01:56:39;10.35;;;6.03;;
33104;SDS011;19476;51.448;6.674;2023-04-19T01:59:05;8.82;;;5.50;;
33104;SDS011;19476;51.448;6.674;2023-04-19T02:01:31;8.32;;;5.75;;
33104;SDS011;19476;51.448;6.674;2023-04-19T02:03:57;8.93;;;5.40;;
33104;SDS011;19476;51.448;6.674;2023-04-19T02:06:23;10.23;;;5.68;;
33104;SDS011;19476;51.448;6.674;2023-04-19T02:08:49;8.93;;;5.35;;
33104;SDS011;19476;51.448;6.674;2023-04-19T02:11:15;9.45;;;5.68;;
33104;SDS011;19476;51.448;6.674;2023-04-19T02:13:40;8.45;;;5.50;;
33104;SDS011;19476;51.448;6.674;2023-04-19T02:16:07;7.40;;;4.72;;
33104;SDS011;19476;51.448;6.674;2023-04-19T02:18:34;8.95;;;5.47;;
33104;SDS011;19476;51.448;6.674;2023-04-19T02:21:02;8.95;;;5.30;;
33104;SDS011;19476;51.448;6.674;2023-04-19T02:23:29;8.73;;;4.72;;
33104;SDS011;19476;51.448;6.674;2023-04-19T02:25:55;7.43;;;4.80;;
33104;SDS011;19476;51.448;6.674;2023-04-19T02:28:21;9.23;;;5.32;;
33104;SDS011;19476;51.448;6.674;2023-04-19T02:30:46;9.98;;;5.15;;
33104;SDS011;19476;51.448;6.674;2023-04-19T02:33:13;7.32;;;4.75;;
33104;SDS011;19476;51.448;6.674;2023-04-19T02:35:39;8.25;;;4.97;;
33104;SDS011;19476;51.448;6.674;2023-04-19T02:38:05;7.43;;;4.68;;
33104;SDS011;19476;51.448;6.674;2023-04-19T02:40:31;8.27;;;4.75;;
33104;SDS011;19476;51.448;6.674;2023-04-19T02:42:57;7.07;;;4.57;;
33104;SDS011;19476;51.448;6.674;2023-04-19T02:45:23;6.70;;;4.43;;
33104;SDS011;19476;51.448;6.674;2023-04-19T02:47:49;7.90;;;4.40;;
33104;SDS011;19476;51.448;6.674;2023-04-19T02:50:15;7.38;;;4.80;;
33104;SDS011;19476;51.448;6.674;2023-04-19T02:52:41;7.70;;;4.97;;
33104;SDS011;19476;51.448;6.674;2023-04-19T02:55:07;7.82;;;4.55;;
33104;SDS011;19476;51.448;6.674;2023-04-19T02:57:34;8.98;;;5.28;;
33104;SDS011;19476;51.448;6.674;2023-04-19T02:59:59;7.95;;;4.20;;
33104;SDS011;19476;51.448;6.674;2023-04-19T03:02:25;7.47;;;4.70;;
33104;SDS011;19476;51.448;6.674;2023-04-19T03:04:51;5.60;;;3.75;;
33104;SDS011;19476;51.448;6.674;2023-04-19T03:07:18;6.97;;;4.15;;
33104;SDS011;19476;51.448;6.674;2023-04-19T03:09:43;9.95;;;4.68;;
33104;SDS011;19476;51.448;6.674;2023-04-19T03:12:09;6.63;;;3.65;;
33104;SDS011;19476;51.448;6.674;2023-04-19T03:14:35;6.97;;;3.83;;
33104;SDS011;19476;51.448;6.674;2023-04-19T03:17:01;6.82;;;4.13;;
33104;SDS011;19476;51.448;6.674;2023-04-19T03:19:27;6.88;;;3.85;;
33104;SDS011;19476;51.448;6.674;2023-04-19T03:21:53;7.13;;;4.03;;
33104;SDS011;19476;51.448;6.674;2023-04-19T03:24:25;6.80;;;3.67;;
33104;SDS011;19476;51.448;6.674;2023-04-19T03:26:55;7.63;;;3.83;;
33104;SDS011;19476;51.448;6.674;2023-04-19T03:29:21;6.80;;;3.85;;
33104;SDS011;19476;51.448;6.674;2023-04-19T03:31:47;7.28;;;4.03;;
33104;SDS011;19476;51.448;6.674;2023-04-19T03:34:13;5.75;;;3.50;;
33104;SDS011;19476;51.448;6.674;2023-04-19T03:36:38;8.13;;;3.97;;
33104;SDS011;19476;51.448;6.674;2023-04-19T03:39:05;6.60;;;3.47;;
33104;SDS011;19476;51.448;6.674;2023-04-19T03:41:31;5.50;;;3.25;;
33104;SDS011;19476;51.448;6.674;2023-04-19T03:43:57;6.38;;;4.07;;
33104;SDS011;19476;51.448;6.674;2023-04-19T03:46:23;6.10;;;3.80;;
33104;SDS011;19476;51.448;6.674;2023-04-19T03:48:49;7.03;;;3.97;;
33104;SDS011;19476;51.448;6.674;2023-04-19T03:51:15;6.25;;;3.35;;
33104;SDS011;19476;51.448;6.674;2023-04-19T03:53:41;7.25;;;3.75;;
33104;SDS011;19476;51.448;6.674;2023-04-19T03:56:07;6.03;;;3.63;;
33104;SDS011;19476;51.448;6.674;2023-04-19T03:58:33;6.63;;;3.80;;
33104;SDS011;19476;51.448;6.674;2023-04-19T04:00:59;6.25;;;3.50;;
33104;SDS011;19476;51.448;6.674;2023-04-19T04:03:25;5.68;;;3.70;;
33104;SDS011;19476;51.448;6.674;2023-04-19T04:05:51;5.72;;;3.17;;
33104;SDS011;19476;51.448;6.674;2023-04-19T04:08:17;5.63;;;3.20;;
33104;SDS011;19476;51.448;6.674;2023-04-19T04:10:43;6.63;;;3.63;;
33104;SDS011;19476;51.448;6.674;2023-04-19T04:13:08;5.82;;;3.00;;
33104;SDS011;19476;51.448;6.674;2023-04-19T04:15:34;4.63;;;3.10;;
33104;SDS011;19476;51.448;6.674;2023-04-19T04:18:00;7.05;;;2.88;;
33104;SDS011;19476;51.448;6.674;2023-04-19T04:20:26;5.78;;;3.00;;
33104;SDS011;19476;51.448;6.674;2023-04-19T04:22:51;5.00;;;2.88;;
33104;SDS011;19476;51.448;6.674;2023-04-19T04:25:17;5.45;;;2.88;;
33104;SDS011;19476;51.448;6.674;2023-04-19T04:27:43;4.20;;;2.50;;
33104;SDS011;19476;51.448;6.674;2023-04-19T04:30:09;5.03;;;2.58;;
33104;SDS011;19476;51.448;6.674;2023-04-19T04:32:36;5.47;;;2.55;;
33104;SDS011;19476;51.448;6.674;2023-04-19T04:35:06;5.00;;;2.80;;
33104;SDS011;19476;51.448;6.674;2023-04-19T04:37:33;4.63;;;2.90;;
33104;SDS011;19476;51.448;6.674;2023-04-19T04:39:59;5.03;;;2.25;;
33104;SDS011;19476;51.448;6.674;2023-04-19T04:42:26;6.15;;;2.35;;
33104;SDS011;19476;51.448;6.674;2023-04-19T04:44:52;4.57;;;2.45;;
33104;SDS011;19476;51.448;6.674;2023-04-19T04:47:22;4.82;;;2.58;;
33104;SDS011;19476;51.448;6.674;2023-04-19T04:49:48;4.47;;;2.83;;
33104;SDS011;19476;51.448;6.674;2023-04-19T04:52:15;3.50;;;2.20;;
33104;SDS011;19476;51.448;6.674;2023-04-19T04:54:42;4.63;;;2.70;;
33104;SDS011;19476;51.448;6.674;2023-04-19T04:57:08;7.57;;;3.55;;
33104;SDS011;19476;51.448;6.674;2023-04-19T04:59:34;5.22;;;2.53;;
33104;SDS011;19476;51.448;6.674;2023-04-19T05:01:59;4.70;;;2.50;;
33104;SDS011;19476;51.448;6.674;2023-04-19T05:04:25;4.35;;;2.40;;
33104;SDS011;19476;51.448;6.674;2023-04-19T05:06:51;5.00;;;2.10;;
33104;SDS011;19476;51.448;6.674;2023-04-19T05:09:16;5.10;;;2.60;;
33104;SDS011;19476;51.448;6.674;2023-04-19T05:11:42;4.72;;;2.60;;
33104;SDS011;19476;51.448;6.674;2023-04-19T05:14:08;3.92;;;2.28;;
33104;SDS011;19476;51.448;6.674;2023-04-19T05:16:34;4.70;;;2.65;;
33104;SDS011;19476;51.448;6.674;2023-04-19T05:19:00;5.18;;;2.88;;
33104;SDS011;19476;51.448;6.674;2023-04-19T05:21:26;6.28;;;2.97;;
33104;SDS011;19476;51.448;6.674;2023-04-19T05:23:51;5.13;;;2.70;;
33104;SDS011;19476;51.448;6.674;2023-04-19T05:26:17;5.80;;;3.03;;
33104;SDS011;19476;51.448;6.674;2023-04-19T05:28:43;5.57;;;2.95;;
33104;SDS011;19476;51.448;6.674;2023-04-19T05:31:10;5.15;;;2.97;;
33104;SDS011;19476;51.448;6.674;2023-04-19T05:33:36;5.00;;;2.45;;
33104;SDS011;19476;51.448;6.674;2023-04-19T05:36:02;4.50;;;2.53;;
33104;SDS011;19476;51.448;6.674;2023-04-19T05:38:28;5.95;;;3.22;;
33104;SDS011;19476;51.448;6.674;2023-04-19T05:40:54;5.18;;;2.60;;
33104;SDS011;19476;51.448;6.674;2023-04-19T05:43:19;5.70;;;2.95;;
33104;SDS011;19476;51.448;6.674;2023-04-19T05:45:45;4.60;;;2.75;;
33104;SDS011;19476;51.448;6.674;2023-04-19T05:48:11;4.85;;;3.00;;
33104;SDS011;19476;51.448;6.674;2023-04-19T05:50:37;4.75;;;2.55;;
33104;SDS011;19476;51.448;6.674;2023-04-19T05:53:04;6.80;;;3.40;;
33104;SDS011;19476;51.448;6.674;2023-04-19T05:55:30;5.78;;;3.05;;
33104;SDS011;19476;51.448;6.674;2023-04-19T05:57:57;6.03;;;3.00;;
33104;SDS011;19476;51.448;6.674;2023-04-19T06:00:23;6.07;;;3.25;;
33104;SDS011;19476;51.448;6.674;2023-04-19T06:02:49;5.32;;;2.97;;
33104;SDS011;19476;51.448;6.674;2023-04-19T06:05:14;5.47;;;2.80;;
33104;SDS011;19476;51.448;6.674;2023-04-19T06:07:40;7.57;;;3.00;;
33104;SDS011;19476;51.448;6.674;2023-04-19T06:10:06;4.72;;;2.95;;
33104;SDS011;19476;51.448;6.674;2023-04-19T06:12:33;5.00;;;2.83;;
33104;SDS011;19476;51.448;6.674;2023-04-19T06:14:58;7.13;;;2.97;;
33104;SDS011;19476;51.448;6.674;2023-04-19T06:17:24;4.60;;;2.42;;
33104;SDS011;19476;51.448;6.674;2023-04-19T06:19:50;5.50;;;3.10;;
33104;SDS011;19476;51.448;6.674;2023-04-19T06:22:17;4.90;;;2.85;;
33104;SDS011;19476;51.448;6.674;2023-04-19T06:24:43;5.05;;;2.78;;
33104;SDS011;19476;51.448;6.674;2023-04-19T06:27:10;5.47;;;3.03;;
33104;SDS011;19476;51.448;6.674;2023-04-19T06:29:36;6.20;;;3.10;;
33104;SDS011;19476;51.448;6.674;2023-04-19T06:32:02;6.07;;;2.47;;
33104;SDS011;19476;51.448;6.674;2023-04-19T06:34:28;5.40;;;2.67;;
33104;SDS011;19476;51.448;6.674;2023-04-19T06:36:53;4.88;;;2.50;;
33104;SDS011;19476;51.448;6.674;2023-04-19T06:39:20;4.10;;;2.53;;
33104;SDS011;19476;51.448;6.674;2023-04-19T06:41:46;4.72;;;2.20;;
33104;SDS011;19476;51.448;6.674;2023-04-19T06:44:11;4.57;;;2.70;;
33104;SDS011;19476;51.448;6.674;2023-04-19T06:46:37;4.40;;;2.42;;
33104;SDS011;19476;51.448;6.674;2023-04-19T06:49:03;4.90;;;2.20;;
33104;SDS011;19476;51.448;6.674;2023-04-19T06:51:29;5.03;;;2.60;;
33104;SDS011;19476;51.448;6.674;2023-04-19T06:53:57;4.75;;;2.83;;
33104;SDS011;19476;51.448;6.674;2023-04-19T06:56:41;5.00;;;2.25;;
33104;SDS011;19476;51.448;6.674;2023-04-19T06:59:14;4.93;;;2.65;;
33104;SDS011;19476;51.448;6.674;2023-04-19T07:01:44;6.78;;;2.55;;
33104;SDS011;19476;51.448;6.674;2023-04-19T07:04:11;5.65;;;2.75;;
33104;SDS011;19476;51.448;6.674;2023-04-19T07:06:37;4.43;;;2.67;;
33104;SDS011;19476;51.448;6.674;2023-04-19T07:09:04;3.92;;;2.50;;
33104;SDS011;19476;51.448;6.674;2023-04-19T07:11:31;5.55;;;3.33;;
33104;SDS011;19476;51.448;6.674;2023-04-19T07:13:58;4.88;;;2.15;;
33104;SDS011;19476;51.448;6.674;2023-04-19T07:16:27;4.00;;;2.28;;
33104;SDS011;19476;51.448;6.674;2023-04-19T07:18:53;5.68;;;2.53;;
33104;SDS011;19476;51.448;6.674;2023-04-19T07:21:19;5.35;;;2.50;;
33104;SDS011;19476;51.448;6.674;2023-04-19T07:23:45;4.57;;;2.60;;
33104;SDS011;19476;51.448;6.674;2023-04-19T07:26:11;5.88;;;2.90;;
33104;SDS011;19476;51.448;6.674;2023-04-19T07:28:38;3.95;;;2.63;;
33104;SDS011;19476;51.448;6.674;2023-04-19T07:31:04;4.47;;;2.25;;
33104;SDS011;19476;51.448;6.674;2023-04-19T07:33:30;6.47;;;2.50;;
33104;SDS011;19476;51.448;6.674;2023-04-19T07:35:56;4.57;;;2.53;;
33104;SDS011;19476;51.448;6.674;2023-04-19T07:38:22;5.10;;;2.47;;
33104;SDS011;19476;51.448;6.674;2023-04-19T07:40:49;6.35;;;2.33;;
33104;SDS011;19476;51.448;6.674;2023-04-19T07:43:15;3.97;;;2.42;;
33104;SDS011;19476;51.448;6.674;2023-04-19T07:45:41;3.58;;;2.30;;
33104;SDS011;19476;51.448;6.674;2023-04-19T07:48:06;5.90;;;2.38;;
33104;SDS011;19476;51.448;6.674;2023-04-19T07:50:33;3.90;;;2.25;;
33104;SDS011;19476;51.448;6.674;2023-04-19T07:52:58;4.38;;;2.38;;
33104;SDS011;19476;51.448;6.674;2023-04-19T07:55:24;3.85;;;2.28;;
33104;SDS011;19476;51.448;6.674;2023-04-19T07:57:50;5.80;;;2.70;;
33104;SDS011;19476;51.448;6.674;2023-04-19T08:00:16;3.38;;;2.13;;
33104;SDS011;19476;51.448;6.674;2023-04-19T08:02:45;3.85;;;2.85;;
33104;SDS011;19476;51.448;6.674;2023-04-19T08:05:12;5.40;;;2.38;;
33104;SDS011;19476;51.448;6.674;2023-04-19T08:07:38;5.10;;;2.40;;
33104;SDS011;19476;51.448;6.674;2023-04-19T08:10:05;3.80;;;2.00;;
33104;SDS011;19476;51.448;6.674;2023-04-19T08:12:31;5.13;;;2.33;;
33104;SDS011;19476;51.448;6.674;2023-04-19T08:14:57;3.75;;;2.05;;
33104;SDS011;19476;51.448;6.674;2023-04-19T08:17:23;2.40;;;1.40;;
33104;SDS011;19476;51.448;6.674;2023-04-19T08:19:50;4.07;;;1.90;;
33104;SDS011;19476;51.448;6.674;2023-04-19T08:22:16;4.90;;;1.98;;
33104;SDS011;19476;51.448;6.674;2023-04-19T08:24:43;3.67;;;1.80;;
33104;SDS011;19476;51.448;6.674;2023-04-19T08:27:09;2.95;;;1.80;;
33104;SDS011;19476;51.448;6.674;2023-04-19T08:29:35;3.70;;;1.60;;
33104;SDS011;19476;51.448;6.674;2023-04-19T08:32:03;2.95;;;1.73;;
33104;SDS011;19476;51.448;6.674;2023-04-19T08:34:29;2.80;;;1.50;;
33104;SDS011;19476;51.448;6.674;2023-04-19T08:36:55;4.22;;;1.75;;
33104;SDS011;19476;51.448;6.674;2023-04-19T08:39:21;4.32;;;1.90;;
33104;SDS011;19476;51.448;6.674;2023-04-19T08:41:47;4.00;;;1.90;;
33104;SDS011;19476;51.448;6.674;2023-04-19T08:44:14;5.22;;;1.70;;
33104;SDS011;19476;51.448;6.674;2023-04-19T08:46:41;7.55;;;2.35;;
33104;SDS011;19476;51.448;6.674;2023-04-19T08:49:08;5.15;;;1.98;;
33104;SDS011;19476;51.448;6.674;2023-04-19T08:51:36;3.95;;;1.67;;
33104;SDS011;19476;51.448;6.674;2023-04-19T08:54:04;4.20;;;1.73;;
33104;SDS011;19476;51.448;6.674;2023-04-19T08:56:31;4.10;;;1.70;;
33104;SDS011;19476;51.448;6.674;2023-04-19T08:58:57;2.65;;;1.30;;
33104;SDS011;19476;51.448;6.674;2023-04-19T09:01:23;2.22;;;1.40;;
33104;SDS011;19476;51.448;6.674;2023-04-19T09:03:49;5.35;;;1.60;;
33104;SDS011;19476;51.448;6.674;2023-04-19T09:06:15;4.15;;;1.70;;
33104;SDS011;19476;51.448;6.674;2023-04-19T09:08:41;2.72;;;1.55;;
33104;SDS011;19476;51.448;6.674;2023-04-19T09:11:07;2.75;;;1.45;;
33104;SDS011;19476;51.448;6.674;2023-04-19T09:13:33;4.40;;;1.80;;
33104;SDS011;19476;51.448;6.674;2023-04-19T09:16:02;4.22;;;1.67;;
33104;SDS011;19476;51.448;6.674;2023-04-19T09:18:29;2.78;;;1.50;;
33104;SDS011;19476;51.448;6.674;2023-04-19T09:20:56;2.40;;;1.20;;
33104;SDS011;19476;51.448;6.674;2023-04-19T09:23:22;2.25;;;1.30;;
33104;SDS011;19476;51.448;6.674;2023-04-19T09:25:59;4.40;;;1.55;;
33104;SDS011;19476;51.448;6.674;2023-04-19T09:28:27;4.03;;;1.38;;
33104;SDS011;19476;51.448;6.674;2023-04-19T09:30:56;3.63;;;1.27;;
33104;SDS011;19476;51.448;6.674;2023-04-19T09:33:32;2.65;;;1.45;;
33104;SDS011;19476;51.448;6.674;2023-04-19T09:36:01;5.03;;;1.65;;
33104;SDS011;19476;51.448;6.674;2023-04-19T09:38:27;1.65;;;1.00;;
33104;SDS011;19476;51.448;6.674;2023-04-19T09:41:14;3.15;;;1.70;;
33104;SDS011;19476;51.448;6.674;2023-04-19T09:43:39;2.50;;;0.95;;
33104;SDS011;19476;51.448;6.674;2023-04-19T09:46:19;2.08;;;1.10;;
33104;SDS011;19476;51.448;6.674;2023-04-19T09:51:56;3.05;;;1.25;;
33104;SDS011;19476;51.448;6.674;2023-04-19T09:54:25;4.13;;;1.38;;
33104;SDS011;19476;51.448;6.674;2023-04-19T09:56:53;2.88;;;1.60;;
33104;SDS011;19476;51.448;6.674;2023-04-19T09:59:19;3.17;;;1.17;;
33104;SDS011;19476;51.448;6.674;2023-04-19T10:01:51;2.25;;;1.15;;
33104;SDS011;19476;51.448;6.674;2023-04-19T10:04:22;1.95;;;1.10;;
33104;SDS011;19476;51.448;6.674;2023-04-19T10:06:50;2.17;;;1.27;;
33104;SDS011;19476;51.448;6.674;2023-04-19T10:09:18;1.50;;;0.98;;
33104;SDS011;19476;51.448;6.674;2023-04-19T10:11:52;2.65;;;1.10;;
33104;SDS011;19476;51.448;6.674;2023-04-19T10:14:22;2.17;;;0.93;;
33104;SDS011;19476;51.448;6.674;2023-04-19T10:16:49;2.38;;;1.10;;
33104;SDS011;19476;51.448;6.674;2023-04-19T10:19:16;3.17;;;1.08;;
33104;SDS011;19476;51.448;6.674;2023-04-19T10:21:45;2.10;;;1.08;;
33104;SDS011;19476;51.448;6.674;2023-04-19T10:24:13;3.33;;;1.33;;
33104;SDS011;19476;51.448;6.674;2023-04-19T10:32:28;3.53;;;1.38;;
33104;SDS011;19476;51.448;6.674;2023-04-19T10:35:00;2.55;;;1.27;;
33104;SDS011;19476;51.448;6.674;2023-04-19T10:37:29;3.83;;;1.30;;
33104;SDS011;19476;51.448;6.674;2023-04-19T10:39:56;2.25;;;1.20;;
33104;SDS011;19476;51.448;6.674;2023-04-19T10:42:32;4.80;;;1.38;;
33104;SDS011;19476;51.448;6.674;2023-04-19T10:45:32;2.45;;;0.95;;
33104;SDS011;19476;51.448;6.674;2023-04-19T10:47:59;3.95;;;1.15;;
33104;SDS011;19476;51.448;6.674;2023-04-19T10:50:28;2.33;;;1.20;;
33104;SDS011;19476;51.448;6.674;2023-04-19T10:52:54;2.20;;;1.02;;
33104;SDS011;19476;51.448;6.674;2023-04-19T10:55:20;3.28;;;1.20;;
33104;SDS011;19476;51.448;6.674;2023-04-19T10:58:03;3.05;;;1.33;;
33104;SDS011;19476;51.448;6.674;2023-04-19T11:00:30;3.33;;;1.35;;
33104;SDS011;19476;51.448;6.674;2023-04-19T11:08:54;2.55;;;1.02;;
33104;SDS011;19476;51.448;6.674;2023-04-19T11:11:21;2.75;;;1.20;;
33104;SDS011;19476;51.448;6.674;2023-04-19T11:13:47;3.00;;;1.10;;
33104;SDS011;19476;51.448;6.674;2023-04-19T11:16:14;2.05;;;1.10;;
33104;SDS011;19476;51.448;6.674;2023-04-19T11:18:43;2.03;;;1.20;;
33104;SDS011;19476;51.448;6.674;2023-04-19T11:21:13;2.58;;;1.50;;
33104;SDS011;19476;51.448;6.674;2023-04-19T11:23:42;1.73;;;1.00;;
33104;SDS011;19476;51.448;6.674;2023-04-19T11:26:17;3.30;;;1.20;;
33104;SDS011;19476;51.448;6.674;2023-04-19T11:28:43;2.50;;;1.25;;
33104;SDS011;19476;51.448;6.674;2023-04-19T11:31:14;4.55;;;1.50;;
33104;SDS011;19476;51.448;6.674;2023-04-19T11:33:39;2.15;;;1.27;;
33104;SDS011;19476;51.448;6.674;2023-04-19T11:36:10;4.80;;;1.40;;
33104;SDS011;19476;51.448;6.674;2023-04-19T11:38:37;3.70;;;1.30;;
33104;SDS011;19476;51.448;6.674;2023-04-19T11:41:03;2.58;;;1.40;;
33104;SDS011;19476;51.448;6.674;2023-04-19T11:43:33;2.22;;;1.30;;
33104;SDS011;19476;51.448;6.674;2023-04-19T11:46:07;2.55;;;1.35;;
33104;SDS011;19476;51.448;6.674;2023-04-19T11:48:33;1.90;;;1.17;;
33104;SDS011;19476;51.448;6.674;2023-04-19T11:51:03;2.67;;;1.63;;
33104;SDS011;19476;51.448;6.674;2023-04-19T11:53:30;2.80;;;1.23;;
33104;SDS011;19476;51.448;6.674;2023-04-19T12:01:06;4.38;;;1.75;;
33104;SDS011;19476;51.448;6.674;2023-04-19T12:03:46;3.58;;;1.83;;
33104;SDS011;19476;51.448;6.674;2023-04-19T12:06:22;4.33;;;1.80;;
33104;SDS011;19476;51.448;6.674;2023-04-19T12:08:53;3.42;;;1.75;;
33104;SDS011;19476;51.448;6.674;2023-04-19T12:11:24;5.38;;;1.80;;
33104;SDS011;19476;51.448;6.674;2023-04-19T12:14:12;3.60;;;1.83;;
33104;SDS011;19476;51.448;6.674;2023-04-19T12:17:02;3.45;;;1.90;;
33104;SDS011;19476;51.448;6.674;2023-04-19T12:19:44;2.72;;;1.38;;
33104;SDS011;19476;51.448;6.674;2023-04-19T12:22:14;2.47;;;1.50;;
33104;SDS011;19476;51.448;6.674;2023-04-19T12:24:43;5.40;;;1.83;;
33104;SDS011;19476;51.448;6.674;2023-04-19T12:27:10;3.60;;;1.80;;
33104;SDS011;19476;51.448;6.674;2023-04-19T12:29:36;3.65;;;1.58;;
33104;SDS011;19476;51.448;6.674;2023-04-19T12:32:13;2.72;;;1.60;;
33104;SDS011;19476;51.448;6.674;2023-04-19T12:34:49;4.47;;;2.05;;
33104;SDS011;19476;51.448;6.674;2023-04-19T12:37:21;3.65;;;1.98;;
33104;SDS011;19476;51.448;6.674;2023-04-19T12:39:56;3.88;;;1.92;;
33104;SDS011;19476;51.448;6.674;2023-04-19T12:42:29;3.08;;;1.55;;
33104;SDS011;19476;51.448;6.674;2023-04-19T12:44:56;3.53;;;1.88;;
33104;SDS011;19476;51.448;6.674;2023-04-19T12:47:25;3.83;;;1.80;;
33104;SDS011;19476;51.448;6.674;2023-04-19T12:49:51;3.05;;;1.80;;
33104;SDS011;19476;51.448;6.674;2023-04-19T12:52:17;4.60;;;2.00;;
33104;SDS011;19476;51.448;6.674;2023-04-19T12:54:43;3.83;;;2.00;;
33104;SDS011;19476;51.448;6.674;2023-04-19T12:57:10;4.47;;;2.00;;
33104;SDS011;19476;51.448;6.674;2023-04-19T12:59:36;4.50;;;2.05;;
33104;SDS011;19476;51.448;6.674;2023-04-19T13:02:01;4.03;;;1.83;;
33104;SDS011;19476;51.448;6.674;2023-04-19T13:04:28;4.10;;;2.00;;
33104;SDS011;19476;51.448;6.674;2023-04-19T13:06:57;2.38;;;1.48;;
33104;SDS011;19476;51.448;6.674;2023-04-19T13:09:26;3.78;;;1.63;;
33104;SDS011;19476;51.448;6.674;2023-04-19T13:11:56;2.78;;;1.70;;
33104;SDS011;19476;51.448;6.674;2023-04-19T13:14:23;5.18;;;2.00;;
33104;SDS011;19476;51.448;6.674;2023-04-19T13:16:54;4.38;;;1.83;;
33104;SDS011;19476;51.448;6.674;2023-04-19T13:19:20;5.78;;;1.90;;
33104;SDS011;19476;51.448;6.674;2023-04-19T13:21:47;3.65;;;2.10;;
33104;SDS011;19476;51.448;6.674;2023-04-19T13:24:13;5.97;;;2.00;;
33104;SDS011;19476;51.448;6.674;2023-04-19T13:26:48;3.78;;;2.08;;
33104;SDS011;19476;51.448;6.674;2023-04-19T13:29:17;3.53;;;1.60;;
33104;SDS011;19476;51.448;6.674;2023-04-19T13:31:42;3.60;;;1.98;;
33104;SDS011;19476;51.448;6.674;2023-04-19T13:34:09;2.88;;;1.70;;
33104;SDS011;19476;51.448;6.674;2023-04-19T13:36:34;7.50;;;2.13;;
33104;SDS011;19476;51.448;6.674;2023-04-19T13:39:01;2.92;;;1.92;;
33104;SDS011;19476;51.448;6.674;2023-04-19T13:41:28;3.08;;;1.85;;
33104;SDS011;19476;51.448;6.674;2023-04-19T13:43:55;4.47;;;2.22;;
33104;SDS011;19476;51.448;6.674;2023-04-19T13:46:21;4.13;;;1.90;;
33104;SDS011;19476;51.448;6.674;2023-04-19T13:48:47;3.47;;;1.83;;
33104;SDS011;19476;51.448;6.674;2023-04-19T13:51:18;3.30;;;1.70;;
33104;SDS011;19476;51.448;6.674;2023-04-19T13:53:44;2.53;;;1.70;;
33104;SDS011;19476;51.448;6.674;2023-04-19T13:56:10;4.68;;;2.17;;
33104;SDS011;19476;51.448;6.674;2023-04-19T13:58:36;3.80;;;1.92;;
33104;SDS011;19476;51.448;6.674;2023-04-19T14:01:06;4.07;;;2.00;;
33104;SDS011;19476;51.448;6.674;2023-04-19T14:03:32;2.28;;;1.52;;
33104;SDS011;19476;51.448;6.674;2023-04-19T14:05:57;3.55;;;1.63;;
33104;SDS011;19476;51.448;6.674;2023-04-19T14:08:23;4.20;;;1.95;;
33104;SDS011;19476;51.448;6.674;2023-04-19T14:10:50;5.15;;;1.75;;
33104;SDS011;19476;51.448;6.674;2023-04-19T14:13:16;3.15;;;1.95;;
33104;SDS011;19476;51.448;6.674;2023-04-19T14:15:41;3.70;;;2.10;;
33104;SDS011;19476;51.448;6.674;2023-04-19T14:18:07;4.25;;;2.03;;
33104;SDS011;19476;51.448;6.674;2023-04-19T14:20:33;3.42;;;2.05;;
33104;SDS011;19476;51.448;6.674;2023-04-19T14:22:59;5.57;;;1.98;;
33104;SDS011;19476;51.448;6.674;2023-04-19T14:25:25;4.95;;;2.08;;
33104;SDS011;19476;51.448;6.674;2023-04-19T14:27:51;3.70;;;2.00;;
33104;SDS011;19476;51.448;6.674;2023-04-19T14:30:17;3.63;;;1.95;;
33104;SDS011;19476;51.448;6.674;2023-04-19T14:32:47;3.08;;;1.60;;
33104;SDS011;19476;51.448;6.674;2023-04-19T14:35:13;3.85;;;1.83;;
33104;SDS011;19476;51.448;6.674;2023-04-19T14:37:40;3.70;;;1.65;;
33104;SDS011;19476;51.448;6.674;2023-04-19T14:40:09;3.78;;;1.88;;
33104;SDS011;19476;51.448;6.674;2023-04-19T14:42:35;2.93;;;1.47;;
33104;SDS011;19476;51.448;6.674;2023-04-19T14:45:01;3.92;;;1.92;;
33104;SDS011;19476;51.448;6.674;2023-04-19T14:47:27;5.03;;;2.22;;
33104;SDS011;19476;51.448;6.674;2023-04-19T14:49:53;4.05;;;2.00;;
33104;SDS011;19476;51.448;6.674;2023-04-19T14:52:19;3.33;;;2.17;;
33104;SDS011;19476;51.448;6.674;2023-04-19T14:54:45;4.65;;;2.45;;
33104;SDS011;19476;51.448;6.674;2023-04-19T14:57:12;4.93;;;1.98;;
33104;SDS011;19476;51.448;6.674;2023-04-19T14:59:38;2.85;;;1.70;;
33104;SDS011;19476;51.448;6.674;2023-04-19T15:02:04;2.72;;;1.65;;
33104;SDS011;19476;51.448;6.674;2023-04-19T15:04:32;3.45;;;1.80;;
33104;SDS011;19476;51.448;6.674;2023-04-19T15:06:59;3.00;;;1.80;;
33104;SDS011;19476;51.448;6.674;2023-04-19T15:09:25;4.55;;;1.80;;